Time;durP1;ratioP1;P1;durP2;ratioP2;P2;SDS_P1;SDS_P2;PMS_P1;PMS_P2;Temp;Humidity;BMP_temperature;BMP_pressure;BME280_temperature;BME280_humidity;BME280_pressure;Samples;Min_cycle;Max_cycle;Signal;HPM_P1;HPM_P2
2023/07/23 00:00:01;;;;;;;12.43;5.95;;;;;;;15.27;100.00;100778.69;5088849;28;20064;-61
2023/07/23 00:02:30;;;;;;;11.23;6.05;;;;;;;15.25;100.00;100783.25;5090742;28;20044;-62
2023/07/23 00:05:01;;;;;;;11.25;6.57;;;;;;;15.25;100.00;100780.63;5066251;28;20138;-51
2023/07/23 00:07:32;;;;;;;14.43;6.45;;;;;;;15.26;100.00;100761.09;5072654;28;20044;-52
2023/07/23 00:10:01;;;;;;;14.50;6.90;;;;;;;15.26;100.00;100757.63;5072564;28;20518;-50
2023/07/23 00:12:30;;;;;;;11.57;6.53;;;;;;;15.33;100.00;100764.06;5070455;28;20701;-51
2023/07/23 00:14:58;;;;;;;12.07;6.93;;;;;;;15.27;100.00;100759.28;5068708;28;20518;-52
2023/07/23 00:17:27;;;;;;;14.35;7.07;;;;;;;15.32;100.00;100754.44;5068940;28;20678;-52
2023/07/23 00:19:55;;;;;;;11.88;6.75;;;;;;;15.32;100.00;100759.72;5072063;28;20419;-53
2023/07/23 00:22:23;;;;;;;10.73;6.55;;;;;;;15.40;100.00;100764.38;5073160;28;20036;-54
2023/07/23 00:24:56;;;;;;;12.93;6.53;;;;;;;15.34;100.00;100755.97;5072235;28;20063;-53
2023/07/23 00:27:24;;;;;;;14.48;7.07;;;;;;;15.35;100.00;100751.50;5072629;28;20044;-54
2023/07/23 00:29:56;;;;;;;11.45;7.18;;;;;;;15.42;100.00;100744.72;5072877;28;20051;-54
2023/07/23 00:32:24;;;;;;;10.63;6.70;;;;;;;15.41;100.00;100737.75;5070530;28;20618;-53
2023/07/23 00:34:53;;;;;;;10.95;6.20;;;;;;;15.42;100.00;100736.78;5068997;28;20044;-51
2023/07/23 00:37:21;;;;;;;12.10;7.57;;;;;;;15.47;100.00;100728.41;5068770;28;20041;-52
2023/07/23 00:39:49;;;;;;;10.70;7.10;;;;;;;15.47;100.00;100729.25;5069729;28;20044;-52
2023/07/23 00:42:18;;;;;;;12.10;7.45;;;;;;;15.47;100.00;100720.47;5072325;28;20055;-51
2023/07/23 00:44:46;;;;;;;12.55;7.32;;;;;;;15.52;100.00;100712.94;5072241;28;20406;-50
2023/07/23 00:47:17;;;;;;;13.27;7.05;;;;;;;15.47;100.00;100709.84;5072014;28;20132;-52
2023/07/23 00:49:45;;;;;;;12.75;7.28;;;;;;;15.50;100.00;100705.13;5071672;28;20044;-52
2023/07/23 00:52:14;;;;;;;11.68;8.05;;;;;;;15.43;100.00;100714.59;5050860;28;20094;-53
2023/07/23 00:54:42;;;;;;;14.73;8.82;;;;;;;15.31;100.00;100703.28;5069300;28;20064;-52
2023/07/23 00:57:12;;;;;;;15.70;8.93;;;;;;;15.26;100.00;100700.19;5071988;28;20040;-54
2023/07/23 00:59:40;;;;;;;12.70;8.18;;;;;;;15.30;100.00;100700.75;5068442;28;20048;-53
2023/07/23 01:02:08;;;;;;;14.02;8.45;;;;;;;15.28;100.00;100697.38;5068041;28;20438;-53
2023/07/23 01:04:38;;;;;;;11.85;7.90;;;;;;;15.36;100.00;100682.47;5069325;28;20068;-52
2023/07/23 01:07:08;;;;;;;11.27;8.02;;;;;;;15.42;100.00;100677.63;5070448;28;20499;-52
2023/07/23 01:09:37;;;;;;;13.25;8.38;;;;;;;15.39;100.00;100681.38;5068256;28;20072;-51
2023/07/23 01:12:06;;;;;;;13.90;8.85;;;;;;;15.42;100.00;100677.63;5069182;28;20404;-54
2023/07/23 01:14:36;;;;;;;13.80;7.97;;;;;;;15.47;100.00;100670.09;5067278;28;20040;-52
2023/07/23 01:17:05;;;;;;;11.10;7.72;;;;;;;15.53;100.00;100665.09;5068481;28;20052;-52
2023/07/23 01:19:33;;;;;;;13.20;7.78;;;;;;;15.53;100.00;100664.28;5068787;28;20376;-51
2023/07/23 01:22:06;;;;;;;13.20;7.93;;;;;;;15.55;100.00;100657.84;5068561;28;20044;-53
2023/07/23 01:24:35;;;;;;;12.23;7.30;;;;;;;15.50;100.00;100652.13;5052604;28;20388;-52
2023/07/23 01:27:04;;;;;;;14.85;7.43;;;;;;;15.48;100.00;100647.94;5071335;28;20052;-54
2023/07/23 01:29:32;;;;;;;14.68;8.23;;;;;;;15.45;100.00;100650.88;5071195;28;20510;-54
2023/07/23 01:32:00;;;;;;;15.18;8.15;;;;;;;15.47;100.00;100636.50;5068063;28;20063;-52
2023/07/23 01:34:28;;;;;;;11.20;7.13;;;;;;;15.48;100.00;100629.41;5067988;28;20093;-52
2023/07/23 01:36:57;;;;;;;13.05;7.65;;;;;;;15.55;100.00;100633.16;5070199;28;20036;-52
2023/07/23 01:39:26;;;;;;;12.65;6.53;;;;;;;15.53;100.00;100627.19;5071127;28;20051;-53
2023/07/23 01:41:55;;;;;;;12.77;7.43;;;;;;;15.58;100.00;100627.56;5071451;28;20045;-51
2023/07/23 01:44:23;;;;;;;11.50;6.93;;;;;;;15.55;100.00;100623.38;5070692;28;20041;-52
2023/07/23 01:46:53;;;;;;;11.00;6.65;;;;;;;15.56;100.00;100621.59;5067997;28;20075;-53
2023/07/23 01:49:21;;;;;;;13.57;6.68;;;;;;;15.65;100.00;100617.25;5070320;28;20048;-53
2023/07/23 01:51:50;;;;;;;10.63;6.30;;;;;;;15.56;100.00;100613.63;5068710;28;20071;-53
2023/07/23 01:54:18;;;;;;;13.45;7.03;;;;;;;15.57;100.00;100611.81;5068254;28;20044;-53
2023/07/23 01:56:48;;;;;;;11.77;6.85;;;;;;;15.62;100.00;100599.00;5068710;28;20588;-63
2023/07/23 01:59:16;;;;;;;11.63;6.35;;;;;;;15.62;100.00;100597.16;5071571;28;20388;-62
2023/07/23 02:01:44;;;;;;;10.63;6.45;;;;;;;15.60;100.00;100598.28;5071079;28;20072;-62
2023/07/23 02:04:13;;;;;;;11.50;6.53;;;;;;;15.60;100.00;100599.13;5071236;28;20116;-62
2023/07/23 02:06:41;;;;;;;13.77;6.57;;;;;;;15.58;100.00;100593.13;5071198;28;20122;-62
2023/07/23 02:09:09;;;;;;;11.15;6.75;;;;;;;15.60;100.00;100583.22;5071233;28;20044;-62
2023/07/23 02:11:37;;;;;;;13.52;6.97;;;;;;;15.58;100.00;100577.22;5071203;28;20452;-54
2023/07/23 02:14:08;;;;;;;16.15;6.82;;;;;;;15.57;100.00;100570.28;5073351;28;20072;-54
2023/07/23 02:16:36;;;;;;;11.40;6.38;;;;;;;15.63;100.00;100569.69;5072568;28;20048;-54
2023/07/23 02:19:04;;;;;;;11.57;6.50;;;;;;;15.60;100.00;100562.03;5072018;28;20127;-53
2023/07/23 02:21:32;;;;;;;11.52;6.53;;;;;;;15.62;100.00;100554.75;5071730;28;20060;-63
2023/07/23 02:24:00;;;;;;;10.23;7.20;;;;;;;15.60;100.00;100551.44;5074821;28;20258;-63
2023/07/23 02:26:31;;;;;;;10.55;6.28;;;;;;;15.59;100.00;100541.78;5075993;28;20048;-63
2023/07/23 02:29:03;;;;;;;12.00;7.15;;;;;;;15.57;100.00;100541.13;5075040;28;20102;-62
2023/07/23 02:31:33;;;;;;;10.80;6.53;;;;;;;15.59;100.00;100541.78;5074676;28;20055;-62
2023/07/23 02:34:01;;;;;;;11.50;6.85;;;;;;;15.57;100.00;100532.31;5074493;28;20071;-62
2023/07/23 02:36:29;;;;;;;10.25;6.75;;;;;;;15.52;100.00;100528.25;5074645;28;20056;-62
2023/07/23 02:38:58;;;;;;;9.35;6.60;;;;;;;15.52;100.00;100524.78;5074675;28;20052;-62
2023/07/23 02:41:26;;;;;;;11.48;6.97;;;;;;;15.56;100.00;100526.19;5074336;28;20503;-62
2023/07/23 02:43:54;;;;;;;11.20;6.43;;;;;;;15.53;100.00;100516.69;5075121;28;20124;-63
2023/07/23 02:46:23;;;;;;;10.57;6.20;;;;;;;15.63;100.00;100518.50;5074519;28;20480;-63
2023/07/23 02:48:52;;;;;;;11.32;6.97;;;;;;;15.65;100.00;100520.03;5075210;28;20128;-62
2023/07/23 02:51:21;;;;;;;11.32;6.68;;;;;;;15.64;100.00;100514.88;5074625;28;20075;-62
2023/07/23 02:53:50;;;;;;;11.73;7.28;;;;;;;15.60;100.00;100503.72;5075047;28;20052;-62
2023/07/23 02:56:18;;;;;;;11.43;7.70;;;;;;;15.64;100.00;100505.13;5074009;28;20076;-62
2023/07/23 02:58:46;;;;;;;12.18;6.90;;;;;;;15.64;100.00;100504.28;5073933;28;20048;-62
2023/07/23 03:01:14;;;;;;;12.90;7.65;;;;;;;15.58;100.00;100508.31;5073587;28;20419;-62
2023/07/23 03:03:44;;;;;;;11.93;6.78;;;;;;;15.57;100.00;100501.34;5055952;28;20055;-62
2023/07/23 03:06:15;;;;;;;15.05;6.97;;;;;;;15.59;100.00;100498.56;5074223;28;20043;-62
2023/07/23 03:08:43;;;;;;;12.57;7.25;;;;;;;15.62;100.00;100487.66;5074292;28;20055;-62
2023/07/23 03:11:12;;;;;;;10.35;6.93;;;;;;;15.49;100.00;100498.56;5074094;28;20664;-62
2023/07/23 03:13:40;;;;;;;11.80;7.45;;;;;;;15.52;100.00;100480.56;5073986;28;20076;-63
2023/07/23 03:16:09;;;;;;;12.45;6.80;;;;;;;15.40;100.00;100488.81;5073843;28;20052;-62
2023/07/23 03:18:37;;;;;;;10.82;7.35;;;;;;;15.43;100.00;100488.53;5073874;28;20047;-62
2023/07/23 03:21:05;;;;;;;11.38;7.10;;;;;;;15.40;100.00;100483.50;5073874;28;20154;-62
2023/07/23 03:23:35;;;;;;;11.73;7.22;;;;;;;15.32;100.00;100478.91;5073500;28;20056;-63
2023/07/23 03:26:03;;;;;;;10.85;6.80;;;;;;;15.38;100.00;100471.22;5073490;28;20040;-63
2023/07/23 03:28:31;;;;;;;11.35;7.10;;;;;;;15.42;100.00;100471.81;5073624;28;20048;-62
2023/07/23 03:30:59;;;;;;;11.60;7.05;;;;;;;15.47;100.00;100474.00;5073535;28;20563;-63
2023/07/23 03:33:27;;;;;;;10.02;6.72;;;;;;;15.46;100.00;100472.34;5073258;28;20072;-63
2023/07/23 03:35:56;;;;;;;12.32;6.45;;;;;;;15.41;100.00;100477.25;5073094;28;20051;-63
2023/07/23 03:38:27;;;;;;;10.35;6.40;;;;;;;15.42;100.00;100463.00;5072852;28;20406;-63
2023/07/23 03:40:56;;;;;;;10.82;6.43;;;;;;;15.43;100.00;100467.31;5073165;28;20106;-62
2023/07/23 03:43:24;;;;;;;10.63;6.50;;;;;;;15.37;100.00;100464.25;5073353;28;20969;-62
2023/07/23 03:45:53;;;;;;;10.70;6.43;;;;;;;15.26;100.00;100461.75;5073450;28;20543;-62
2023/07/23 03:48:21;;;;;;;12.90;6.10;;;;;;;15.34;100.00;100458.41;5073202;28;20056;-62
2023/07/23 03:50:49;;;;;;;11.55;6.13;;;;;;;15.32;100.00;100449.75;5073288;28;20396;-62
2023/07/23 03:53:17;;;;;;;11.65;6.50;;;;;;;15.29;100.00;100452.69;5073291;28;20048;-62
2023/07/23 03:55:45;;;;;;;11.68;6.70;;;;;;;15.33;100.00;100454.91;5073155;28;20044;-51
2023/07/23 03:58:15;;;;;;;11.30;6.10;;;;;;;15.29;100.00;100460.66;5073308;28;20049;-53
2023/07/23 04:00:43;;;;;;;12.57;6.05;;;;;;;15.30;100.00;100446.44;5072832;28;20048;-53
2023/07/23 04:03:11;;;;;;;11.50;5.65;;;;;;;15.29;100.00;100450.88;5070097;28;20058;-53
2023/07/23 04:05:39;;;;;;;12.65;6.70;;;;;;;15.34;100.00;100450.47;5070090;28;20085;-53
2023/07/23 04:08:08;;;;;;;10.18;6.10;;;;;;;15.35;100.00;100446.81;5072927;28;20086;-49
2023/07/23 04:10:37;;;;;;;11.35;6.43;;;;;;;15.33;100.00;100444.31;5072894;28;20048;-54
2023/07/23 04:13:05;;;;;;;11.77;6.40;;;;;;;15.31;100.00;100446.28;5072751;28;20094;-49
2023/07/23 04:15:38;;;;;;;10.88;6.82;;;;;;;15.34;100.00;100439.88;5072949;28;20079;-52
2023/07/23 04:18:15;;;;;;;11.77;6.70;;;;;;;15.34;100.00;100435.41;5070010;28;20055;-52
2023/07/23 04:20:46;;;;;;;11.85;6.68;;;;;;;15.34;100.00;100434.56;5070943;28;20066;-54
2023/07/23 04:23:14;;;;;;;14.27;7.22;;;;;;;15.34;100.00;100438.06;5072804;28;20479;-52
2023/07/23 04:25:42;;;;;;;11.93;6.50;;;;;;;15.26;100.00;100432.63;5054765;28;20438;-62
2023/07/23 04:28:10;;;;;;;10.98;6.82;;;;;;;15.32;100.00;100426.75;5072477;28;20044;-62
2023/07/23 04:30:40;;;;;;;10.25;6.47;;;;;;;15.32;100.00;100434.69;5072447;28;20055;-63
2023/07/23 04:33:08;;;;;;;10.88;6.68;;;;;;;15.33;100.00;100431.06;5072680;28;20518;-63
2023/07/23 04:35:36;;;;;;;8.85;6.00;;;;;;;15.41;100.00;100440.16;5071972;28;20480;-63
2023/07/23 04:38:04;;;;;;;10.57;5.93;;;;;;;15.37;100.00;100434.28;5072268;28;20052;-62
2023/07/23 04:40:34;;;;;;;10.48;6.20;;;;;;;15.37;100.00;100434.28;5054517;28;20101;-62
2023/07/23 04:43:03;;;;;;;12.00;5.65;;;;;;;15.41;100.00;100440.16;5072157;28;20055;-63
2023/07/23 04:45:31;;;;;;;10.73;6.22;;;;;;;15.41;100.00;100430.38;5072381;28;20051;-62
2023/07/23 04:48:01;;;;;;;9.43;5.85;;;;;;;15.50;100.00;100439.28;5071875;28;20072;-63
2023/07/23 04:50:29;;;;;;;11.05;5.30;;;;;;;15.53;100.00;100431.88;5071962;28;20080;-62
2023/07/23 04:52:57;;;;;;;8.95;5.38;;;;;;;15.53;100.00;100436.38;5071743;28;20119;-62
2023/07/23 04:55:26;;;;;;;8.80;5.28;;;;;;;15.51;100.00;100438.31;5071693;28;20051;-62
2023/07/23 04:57:54;;;;;;;12.23;5.85;;;;;;;15.56;100.00;100433.41;5071756;28;20044;-63
2023/07/23 05:00:23;;;;;;;10.63;5.45;;;;;;;15.65;100.00;100434.38;5071893;28;20467;-62
2023/07/23 05:02:51;;;;;;;9.95;5.45;;;;;;;15.75;100.00;100435.19;5071784;28;20048;-62
2023/07/23 05:05:21;;;;;;;11.95;5.50;;;;;;;15.72;100.00;100428.38;5071844;28;20045;-62
2023/07/23 05:07:49;;;;;;;10.65;4.90;;;;;;;15.78;100.00;100434.06;5071727;28;20044;-63
2023/07/23 05:10:17;;;;;;;12.23;5.45;;;;;;;15.81;100.00;100439.13;5071674;28;20044;-62
2023/07/23 05:12:45;;;;;;;9.57;4.80;;;;;;;15.84;100.00;100444.13;5071608;28;20044;-63
2023/07/23 05:15:15;;;;;;;9.63;5.10;;;;;;;15.88;100.00;100434.91;5071601;28;20072;-63
2023/07/23 05:17:43;;;;;;;10.52;5.00;;;;;;;15.90;100.00;100435.59;5071348;28;20174;-62
2023/07/23 05:20:11;;;;;;;10.40;5.28;;;;;;;15.92;100.00;100435.44;5071046;28;20442;-62
2023/07/23 05:22:41;;;;;;;9.73;4.72;;;;;;;15.95;100.00;100435.16;5053421;28;20114;-64
2023/07/23 05:25:09;;;;;;;10.55;4.53;;;;;;;16.01;100.00;100435.41;5071696;28;20040;-63
2023/07/23 05:27:38;;;;;;;8.40;4.72;;;;;;;16.05;100.00;100428.84;5071551;28;20498;-63
2023/07/23 05:30:07;;;;;;;9.93;5.13;;;;;;;16.06;100.00;100429.69;5071446;28;20049;-62
2023/07/23 05:32:35;;;;;;;9.73;5.32;;;;;;;16.05;100.00;100425.38;5071311;28;20410;-54
2023/07/23 05:35:04;;;;;;;9.15;4.40;;;;;;;16.09;100.00;100432.03;5070982;28;20448;-62
2023/07/23 05:37:33;;;;;;;10.57;4.90;;;;;;;16.11;100.00;100429.25;5071412;28;20051;-54
2023/07/23 05:40:04;;;;;;;8.70;4.60;;;;;;;16.17;100.00;100432.16;5071666;28;20151;-62
2023/07/23 05:42:32;;;;;;;9.63;4.50;;;;;;;16.23;100.00;100428.91;5071170;28;20056;-62
2023/07/23 05:45:00;;;;;;;8.95;4.40;;;;;;;16.25;100.00;100428.75;5071037;28;20048;-62
2023/07/23 05:47:28;;;;;;;10.40;4.78;;;;;;;16.27;100.00;100428.63;5071158;28;20128;-62
2023/07/23 05:49:56;;;;;;;9.55;4.45;;;;;;;16.26;100.00;100432.25;5075148;28;20053;-62
2023/07/23 05:52:25;;;;;;;9.52;5.18;;;;;;;16.31;100.00;100433.47;5075579;28;20044;-62
2023/07/23 05:54:53;;;;;;;10.02;4.70;;;;;;;16.30;100.00;100438.94;5075420;28;20056;-62
2023/07/23 05:57:23;;;;;;;11.95;5.28;;;;;;;16.31;100.00;100433.47;5075327;28;20049;-63
2023/07/23 05:59:51;;;;;;;11.30;5.00;;;;;;;16.34;100.00;100435.81;5075239;28;20055;-63
2023/07/23 06:02:19;;;;;;;10.60;4.57;;;;;;;16.35;100.00;100439.34;5074901;28;20064;-63
2023/07/23 06:04:48;;;;;;;8.32;4.70;;;;;;;16.34;100.00;100433.16;5075131;28;20451;-62
2023/07/23 06:07:16;;;;;;;10.35;4.82;;;;;;;16.34;100.00;100435.81;5075187;28;20467;-62
2023/07/23 06:09:44;;;;;;;9.43;4.90;;;;;;;16.27;100.00;100440.06;5075156;28;20033;-58
2023/07/23 06:12:12;;;;;;;9.40;4.53;;;;;;;16.36;100.00;100438.31;5075096;28;20048;-51
2023/07/23 06:14:42;;;;;;;9.60;4.57;;;;;;;16.36;100.00;100439.19;5075146;28;20045;-62
2023/07/23 06:17:10;;;;;;;7.82;4.57;;;;;;;16.38;100.00;100431.91;5074737;28;20495;-62
2023/07/23 06:19:38;;;;;;;12.93;4.53;;;;;;;16.44;100.00;100433.13;5075028;28;20048;-63
2023/07/23 06:22:07;;;;;;;10.20;4.47;;;;;;;16.39;100.00;100433.56;5074991;28;20156;-62
2023/07/23 06:24:35;;;;;;;9.60;4.85;;;;;;;16.30;100.00;100433.63;5074915;28;20169;-62
2023/07/23 06:27:03;;;;;;;8.32;4.60;;;;;;;16.38;100.00;100431.91;5074886;28;20125;-63
2023/07/23 06:29:31;;;;;;;8.77;4.55;;;;;;;16.45;100.00;100424.19;5074886;28;20072;-63
2023/07/23 06:32:01;;;;;;;8.35;4.20;;;;;;;16.44;100.00;100434.94;5074587;28;20127;-53
2023/07/23 06:34:29;;;;;;;8.63;4.45;;;;;;;16.49;100.00;100432.69;5074530;28;20403;-53
2023/07/23 06:36:57;;;;;;;7.80;4.45;;;;;;;16.49;100.00;100430.03;5074201;28;20050;-54
2023/07/23 06:39:27;;;;;;;9.50;4.45;;;;;;;16.49;100.00;100438.81;5074119;28;20399;-53
2023/07/23 06:41:55;;;;;;;8.07;4.47;;;;;;;16.46;100.00;100438.31;5071399;28;20043;-53
2023/07/23 06:44:24;;;;;;;9.52;5.00;;;;;;;16.51;100.00;100442.19;5070700;28;20052;-52
2023/07/23 06:46:52;;;;;;;8.00;4.45;;;;;;;16.43;100.00;100447.38;5073322;28;20068;-53
2023/07/23 06:49:23;;;;;;;9.68;4.07;;;;;;;16.48;100.00;100453.06;5070837;28;20044;-52
2023/07/23 06:51:52;;;;;;;8.25;4.45;;;;;;;16.41;100.00;100443.22;5073319;28;20048;-50
2023/07/23 06:54:20;;;;;;;9.10;5.10;;;;;;;16.43;100.00;100454.50;5070969;28;20789;-54
2023/07/23 06:56:48;;;;;;;10.05;4.55;;;;;;;16.31;100.00;100451.22;5070576;28;20044;-62
2023/07/23 06:59:17;;;;;;;9.80;4.45;;;;;;;16.31;100.00;100460.00;5069718;28;20379;-53
2023/07/23 07:01:45;;;;;;;8.60;4.25;;;;;;;16.37;100.00;100472.72;5071014;28;20063;-51
2023/07/23 07:04:13;;;;;;;8.95;4.60;;;;;;;16.27;100.00;100461.28;5071095;28;20056;-52
2023/07/23 07:06:44;;;;;;;9.23;4.30;;;;;;;16.25;100.00;100459.75;5070660;28;20041;-62
2023/07/23 07:09:12;;;;;;;8.60;4.63;;;;;;;16.15;100.00;100468.59;5073869;28;20047;-62
2023/07/23 07:11:40;;;;;;;9.65;4.90;;;;;;;16.20;100.00;100468.16;5073741;28;20056;-63
2023/07/23 07:14:08;;;;;;;9.10;4.90;;;;;;;16.22;100.00;100467.03;5074026;28;20040;-63
2023/07/23 07:16:36;;;;;;;8.38;4.40;;;;;;;16.19;100.00;100474.44;5074142;28;20131;-63
2023/07/23 07:19:04;;;;;;;9.93;4.63;;;;;;;16.20;100.00;100471.63;5073733;28;20403;-63
2023/07/23 07:21:32;;;;;;;8.98;4.55;;;;;;;16.19;100.00;100466.47;5073746;28;20044;-53
2023/07/23 07:24:02;;;;;;;9.80;4.63;;;;;;;16.12;100.00;100474.19;5073703;28;20055;-53
2023/07/23 07:26:30;;;;;;;10.00;4.60;;;;;;;16.09;100.00;100468.31;5073369;28;20059;-53
2023/07/23 07:28:58;;;;;;;10.90;5.05;;;;;;;16.15;100.00;100467.75;5069568;28;20437;-53
2023/07/23 07:31:27;;;;;;;8.60;5.10;;;;;;;16.04;100.00;100464.28;5072284;28;20376;-54
2023/07/23 07:33:55;;;;;;;10.98;5.80;;;;;;;16.14;100.00;100472.25;5073551;28;20047;-54
2023/07/23 07:36:23;;;;;;;11.73;4.80;;;;;;;16.01;100.00;100463.75;5072451;28;20045;-54
2023/07/23 07:38:52;;;;;;;7.78;4.40;;;;;;;15.92;100.00;100468.09;5070119;28;20128;-53
2023/07/23 07:41:21;;;;;;;9.02;5.53;;;;;;;15.88;100.00;100474.66;5070464;28;20048;-54
2023/07/23 07:43:49;;;;;;;11.25;5.30;;;;;;;15.95;100.00;100467.84;5069302;28;20063;-63
2023/07/23 07:46:17;;;;;;;10.40;4.72;;;;;;;15.93;100.00;100464.47;5073070;28;20045;-53
2023/07/23 07:48:48;;;;;;;8.98;4.70;;;;;;;15.96;100.00;100460.69;5073301;28;20376;-54
2023/07/23 07:51:16;;;;;;;8.75;5.15;;;;;;;15.92;100.00;100465.44;5073265;28;20051;-52
2023/07/23 07:53:44;;;;;;;11.40;5.32;;;;;;;15.87;100.00;100462.41;5072034;28;20072;-53
2023/07/23 07:56:17;;;;;;;9.35;5.32;;;;;;;15.93;100.00;100461.00;5070036;28;20052;-63
2023/07/23 07:58:47;;;;;;;9.82;4.80;;;;;;;15.89;100.00;100463.91;5072271;28;20130;-63
2023/07/23 08:01:16;;;;;;;9.75;5.22;;;;;;;15.82;100.00;100465.47;5072697;28;20059;-61
2023/07/23 08:03:45;;;;;;;8.85;5.25;;;;;;;15.87;100.00;100465.06;5072950;28;20055;-54
2023/07/23 08:06:15;;;;;;;9.43;5.35;;;;;;;15.77;100.00;100459.72;5072752;28;20048;-54
2023/07/23 08:08:44;;;;;;;9.82;5.38;;;;;;;15.86;100.00;100458.91;5072892;28;20051;-51
2023/07/23 08:11:16;;;;;;;9.77;5.38;;;;;;;15.77;100.00;100461.56;5069962;28;20494;-54
2023/07/23 08:13:44;;;;;;;10.25;5.35;;;;;;;15.81;100.00;100462.97;5068286;28;20041;-53
2023/07/23 08:16:16;;;;;;;11.63;5.78;;;;;;;15.87;100.00;100465.06;5072658;28;20040;-54
2023/07/23 08:18:45;;;;;;;9.90;5.68;;;;;;;15.91;100.00;100455.84;5071328;28;20040;-54
2023/07/23 08:21:13;;;;;;;10.02;5.65;;;;;;;16.02;100.00;100458.31;5051460;28;20114;-52
2023/07/23 08:23:46;;;;;;;11.98;5.15;;;;;;;16.01;100.00;100458.47;5069567;28;20071;-54
2023/07/23 08:26:18;;;;;;;9.80;5.57;;;;;;;15.80;100.00;100463.94;5051469;28;20063;-53
2023/07/23 08:28:51;;;;;;;9.20;5.22;;;;;;;15.92;100.00;100462.78;5068492;28;20048;-54
2023/07/23 08:31:21;;;;;;;10.05;5.47;;;;;;;15.99;100.00;100463.06;5052854;28;20579;-52
2023/07/23 08:33:52;;;;;;;11.55;5.40;;;;;;;15.97;100.00;100457.06;5072102;28;20044;-53
2023/07/23 08:36:21;;;;;;;9.50;5.68;;;;;;;15.98;100.00;100458.72;5072103;28;20048;-54
2023/07/23 08:38:50;;;;;;;9.30;5.88;;;;;;;15.95;100.00;100454.56;5069054;28;20056;-53
2023/07/23 08:41:24;;;;;;;9.98;5.57;;;;;;;16.08;100.00;100458.72;5069594;28;20052;-50
2023/07/23 08:44:30;;;;;;;12.27;6.35;;;;;;;16.11;100.00;100455.78;5072134;28;20079;-52
2023/07/23 08:47:10;;;;;;;9.57;5.75;;;;;;;15.89;100.00;100463.09;5072038;28;20052;-62
2023/07/23 08:49:41;;;;;;;9.32;5.55;;;;;;;16.00;100.00;100460.25;5054144;28;20044;-62
2023/07/23 08:52:11;;;;;;;11.57;5.65;;;;;;;15.98;100.00;100459.59;5072190;28;20048;-62
2023/07/23 08:54:41;;;;;;;12.93;6.50;;;;;;;16.13;100.00;100459.09;5072343;28;20483;-62
2023/07/23 08:57:10;;;;;;;11.20;6.05;;;;;;;16.13;100.00;100465.25;5071954;28;20044;-50
2023/07/23 08:59:41;;;;;;;10.32;5.97;;;;;;;16.23;100.00;100459.91;5067339;28;20049;-53
2023/07/23 09:02:12;;;;;;;11.18;6.53;;;;;;;16.32;100.00;100453.72;5068985;28;20572;-54
2023/07/23 09:04:41;;;;;;;11.75;5.75;;;;;;;16.47;100.00;100453.22;5071683;28;20056;-52
2023/07/23 09:07:11;;;;;;;12.75;6.03;;;;;;;16.42;100.00;100452.84;5071913;28;20105;-51
2023/07/23 09:09:39;;;;;;;10.23;5.65;;;;;;;16.33;100.00;100447.44;5071928;28;20131;-53
2023/07/23 09:12:08;;;;;;;9.60;5.80;;;;;;;16.30;100.00;100458.31;5068789;28;20048;-54
2023/07/23 09:14:42;;;;;;;10.60;5.78;;;;;;;16.29;100.00;100454.03;5067062;28;20125;-52
2023/07/23 09:17:19;;;;;;;9.18;5.28;;;;;;;16.39;100.00;100454.81;5067881;28;20041;-53
2023/07/23 09:19:47;;;;;;;12.30;5.38;;;;;;;16.38;100.00;100453.13;5070863;28;20484;-53
2023/07/23 09:22:17;;;;;;;8.95;5.28;;;;;;;16.50;100.00;100466.22;5071633;28;20083;-52
2023/07/23 09:24:46;;;;;;;11.07;4.65;;;;;;;16.50;100.00;100458.25;5068056;28;20052;-55
2023/07/23 09:27:15;;;;;;;8.48;4.95;;;;;;;16.57;100.00;100459.31;5069061;28;20052;-54
2023/07/23 09:29:44;;;;;;;10.00;4.78;;;;;;;16.65;100.00;100461.25;5071299;28;20036;-54
2023/07/23 09:32:26;;;;;;;10.55;4.32;;;;;;;16.55;100.00;100461.28;5053044;28;20083;-53
2023/07/23 09:34:55;;;;;;;7.10;4.25;;;;;;;16.64;100.00;100457.75;5071200;28;20044;-53
2023/07/23 09:37:27;;;;;;;8.05;4.10;;;;;;;16.72;100.00;100464.97;5070472;28;20514;-53
2023/07/23 09:39:56;;;;;;;7.78;4.40;;;;;;;16.72;100.00;100465.78;5068043;28;20114;-52
2023/07/23 09:42:25;;;;;;;8.25;3.90;;;;;;;16.73;100.00;100467.47;5070046;28;20072;-53
2023/07/23 09:44:53;;;;;;;8.80;4.15;;;;;;;16.76;100.00;100462.84;5071397;28;20047;-53
2023/07/23 09:47:25;;;;;;;10.73;4.38;;;;;;;16.81;100.00;100468.53;5071198;28;20049;-54
2023/07/23 09:49:54;;;;;;;6.23;3.57;;;;;;;16.67;100.00;100473.34;5070180;28;20143;-54
2023/07/23 09:52:23;;;;;;;6.43;3.50;;;;;;;16.67;100.00;100459.25;5067875;28;20062;-55
2023/07/23 09:54:52;;;;;;;7.03;3.67;;;;;;;16.72;100.00;100465.78;5069304;28;20052;-55
2023/07/23 09:57:23;;;;;;;6.95;3.45;;;;;;;16.87;100.00;100466.13;5069219;28;20045;-60
2023/07/23 09:59:52;;;;;;;8.13;3.70;;;;;;;16.88;100.00;100470.44;5066630;28;20440;-55
2023/07/23 10:02:24;;;;;;;7.97;3.90;;;;;;;16.94;100.00;100469.03;5070657;28;20088;-52
2023/07/23 10:04:55;;;;;;;7.85;3.70;;;;;;;16.92;100.00;100471.03;5071117;28;20048;-54
2023/07/23 10:07:24;;;;;;;7.60;3.30;;;;;;;16.87;100.00;100470.59;5071770;28;20041;-62
2023/07/23 10:09:54;;;;;;;7.18;3.67;;;;;;;16.96;100.00;100464.44;5071110;28;20573;-61
2023/07/23 10:12:22;;;;;;;5.82;3.08;;;;;;;17.03;100.00;100476.09;5071162;28;20062;-61
2023/07/23 10:14:51;;;;;;;5.63;3.13;;;;;;;16.97;100.00;100473.22;5071146;28;20044;-61
2023/07/23 10:17:20;;;;;;;6.20;3.30;;;;;;;16.86;100.00;100475.06;5053122;28;20067;-62
2023/07/23 10:19:49;;;;;;;5.18;2.70;;;;;;;16.88;100.00;100480.25;5071211;28;20373;-62
2023/07/23 10:22:19;;;;;;;6.85;3.30;;;;;;;16.99;100.00;100488.03;5070906;28;20068;-62
2023/07/23 10:24:52;;;;;;;5.30;2.83;;;;;;;17.02;100.00;100473.59;5070895;28;20064;-62
2023/07/23 10:27:20;;;;;;;6.32;2.80;;;;;;;16.89;100.00;100476.63;5070959;28;20048;-62
2023/07/23 10:30:15;;;;;;;5.55;2.83;;;;;;;17.03;100.00;100484.06;5071249;28;20051;-62
2023/07/23 10:32:46;;;;;;;5.07;2.80;;;;;;;17.10;100.00;100484.31;5071128;28;20365;-62
2023/07/23 10:35:34;;;;;;;4.45;2.63;;;;;;;17.10;100.00;100483.47;5073369;28;20037;-59
2023/07/23 10:38:21;;;;;;;4.20;2.20;;;;;;;17.28;100.00;100486.13;5074386;28;20133;-59
2023/07/23 10:40:50;;;;;;;5.60;2.60;;;;;;;17.15;100.00;100489.16;5074613;28;20425;-63
2023/07/23 10:43:18;;;;;;;5.75;2.67;;;;;;;17.20;100.00;100484.22;5074484;28;20044;-62
2023/07/23 10:45:49;;;;;;;4.85;2.50;;;;;;;16.94;100.00;100484.16;5074498;28;20080;-62
2023/07/23 10:48:17;;;;;;;4.63;2.20;;;;;;;17.03;100.00;100477.94;5074587;28;20492;-62
2023/07/23 10:51:01;;;;;;;5.82;2.42;;;;;;;17.00;100.00;100481.72;5074498;28;20044;-62
2023/07/23 10:53:33;;;;;;;4.45;2.47;;;;;;;17.10;100.00;100479.00;5074307;28;20510;-63
2023/07/23 10:56:01;;;;;;;3.92;2.15;;;;;;;17.12;100.00;100478.84;5074364;28;20051;-62
2023/07/23 10:58:29;;;;;;;4.60;2.00;;;;;;;17.01;100.00;100480.72;5074103;28;20044;-64
2023/07/23 11:00:59;;;;;;;4.50;2.50;;;;;;;17.00;100.00;100478.22;5074058;28;20053;-64
2023/07/23 11:03:27;;;;;;;3.90;2.30;;;;;;;16.98;100.00;100483.69;5074432;28;20184;-63
2023/07/23 11:05:56;;;;;;;4.45;2.38;;;;;;;17.00;100.00;100472.91;5074138;28;20055;-62
2023/07/23 11:08:26;;;;;;;4.05;2.30;;;;;;;17.08;100.00;100480.97;5074022;28;20044;-63
2023/07/23 11:10:58;;;;;;;5.05;2.58;;;;;;;17.10;100.00;100483.47;5073978;28;20049;-62
2023/07/23 11:13:31;;;;;;;3.95;2.33;;;;;;;17.13;100.00;100483.19;5074087;28;20060;-64
2023/07/23 11:16:00;;;;;;;4.97;2.55;;;;;;;17.25;100.00;100489.94;5072139;28;20054;-52
2023/07/23 11:18:32;;;;;;;3.92;2.38;;;;;;;17.05;100.00;100486.56;5052858;28;20147;-54
2023/07/23 11:21:04;;;;;;;5.70;2.70;;;;;;;17.15;100.00;100497.97;5073447;28;20074;-53